CWAE

Whistler Airport

British Columbia, Canada
METAR CWAE 170100Z 18002KT 15SM SKC 31/04 A3001 RMK LAST OBS/NEXT 171300UTC WND ESTD SLP150 DENSITY ALT 4400FT
Observed Flight Rules
Jul-17 @ 01:00 UTC (9 hours ago) Visual Flight Rules
Wind Visibility Clouds
180° at 2 knots 15 miles
  • Clear skies
Temperatures Readings
Current 31°C / 88°F
Dewpoint 4°C / 39°F
Humidity 18%
Altimeter 30.01" Hg
Pressure 1015 hPa
Elevation 658
METAR CWAE 170100Z 18002KT 15SM SKC 31/04 A3001 RMK LAST OBS/NEXT 171300UTC WND ESTD SLP150 DENSITY ALT 4400FT
Observed Flight Rules
Jul-17 @ 01:00 UTC
(9 hours ago)
VFR
Wind Visibility
180° at 2 knots 15 miles
Clouds
  • Clear skies
Temperature Dewpoint
31°C / 88°F 4°C / 39°F
Humidity Altimeter Pressure
18% 30.01" Hg 1015 hPa